sensor_id;sensor_type;location;lat;lon;timestamp;pressure;altitude;pressure_sealevel;temperature;humidity
46955;BME280;32708;51.212;6.788;2023-06-10T00:00:46;100767.50;;;25.20;62.70
46955;BME280;32708;51.212;6.788;2023-06-10T00:03:12;100766.00;;;25.70;61.18
46955;BME280;32708;51.212;6.788;2023-06-10T00:05:38;100758.34;;;25.77;61.25
46955;BME280;32708;51.212;6.788;2023-06-10T00:08:06;100762.38;;;25.46;61.49
46955;BME280;32708;51.212;6.788;2023-06-10T00:10:37;100763.28;;;25.36;62.03
46955;BME280;32708;51.212;6.788;2023-06-10T00:13:06;100756.72;;;25.49;62.00
46955;BME280;32708;51.212;6.788;2023-06-10T00:15:37;100771.28;;;25.37;62.25
46955;BME280;32708;51.212;6.788;2023-06-10T00:18:04;100763.72;;;25.04;63.31
46955;BME280;32708;51.212;6.788;2023-06-10T00:20:31;100765.91;;;25.19;62.93
46955;BME280;32708;51.212;6.788;2023-06-10T00:22:58;100763.44;;;25.56;61.75
46955;BME280;32708;51.212;6.788;2023-06-10T00:25:27;100763.06;;;24.89;63.68
46955;BME280;32708;51.212;6.788;2023-06-10T00:27:53;100759.53;;;25.19;62.95
46955;BME280;32708;51.212;6.788;2023-06-10T00:30:19;100755.53;;;25.77;60.55
46955;BME280;32708;51.212;6.788;2023-06-10T00:32:46;100754.69;;;25.23;62.43
46955;BME280;32708;51.212;6.788;2023-06-10T00:35:12;100759.16;;;25.47;61.49
46955;BME280;32708;51.212;6.788;2023-06-10T00:37:38;100757.63;;;25.12;62.78
46955;BME280;32708;51.212;6.788;2023-06-10T00:40:05;100763.25;;;25.39;62.26
46955;BME280;32708;51.212;6.788;2023-06-10T00:42:32;100755.44;;;25.58;61.78
46955;BME280;32708;51.212;6.788;2023-06-10T00:44:58;100760.91;;;25.65;60.86
46955;BME280;32708;51.212;6.788;2023-06-10T00:47:26;100764.13;;;25.36;62.39
46955;BME280;32708;51.212;6.788;2023-06-10T00:49:54;100767.22;;;25.69;61.14
46955;BME280;32708;51.212;6.788;2023-06-10T00:52:26;100767.44;;;25.55;61.17
46955;BME280;32708;51.212;6.788;2023-06-10T00:54:53;100765.00;;;25.57;61.59
46955;BME280;32708;51.212;6.788;2023-06-10T00:57:20;100774.91;;;25.34;62.34
46955;BME280;32708;51.212;6.788;2023-06-10T00:59:49;100761.75;;;25.62;61.10
46955;BME280;32708;51.212;6.788;2023-06-10T01:02:16;100772.56;;;24.95;64.01
46955;BME280;32708;51.212;6.788;2023-06-10T01:04:42;100769.13;;;25.48;61.90
46955;BME280;32708;51.212;6.788;2023-06-10T01:07:28;100771.41;;;25.27;62.40
46955;BME280;32708;51.212;6.788;2023-06-10T01:10:32;100761.78;;;25.89;59.90
46955;BME280;32708;51.212;6.788;2023-06-10T01:13:07;100764.44;;;25.69;60.70
46955;BME280;32708;51.212;6.788;2023-06-10T01:15:35;100777.91;;;25.77;60.20
46955;BME280;32708;51.212;6.788;2023-06-10T01:18:10;100776.28;;;25.80;60.20
46955;BME280;32708;51.212;6.788;2023-06-10T01:20:42;100772.50;;;25.63;60.69
46955;BME280;32708;51.212;6.788;2023-06-10T01:23:10;100777.88;;;25.81;59.88
46955;BME280;32708;51.212;6.788;2023-06-10T01:25:47;100773.19;;;25.71;60.37
46955;BME280;32708;51.212;6.788;2023-06-10T01:28:40;100768.97;;;25.59;60.54
46955;BME280;32708;51.212;6.788;2023-06-10T01:31:48;100777.97;;;25.74;60.38
46955;BME280;32708;51.212;6.788;2023-06-10T01:34:18;100779.94;;;25.46;60.74
46955;BME280;32708;51.212;6.788;2023-06-10T01:36:48;100769.34;;;25.61;60.67
46955;BME280;32708;51.212;6.788;2023-06-10T01:39:18;100780.78;;;25.43;60.58
46955;BME280;32708;51.212;6.788;2023-06-10T01:41:48;100775.69;;;25.65;60.44
46955;BME280;32708;51.212;6.788;2023-06-10T01:44:22;100779.75;;;25.61;60.27
46955;BME280;32708;51.212;6.788;2023-06-10T01:46:49;100774.66;;;25.52;60.29
46955;BME280;32708;51.212;6.788;2023-06-10T01:49:16;100776.50;;;25.62;59.40
46955;BME280;32708;51.212;6.788;2023-06-10T01:51:43;100773.56;;;25.46;61.17
46955;BME280;32708;51.212;6.788;2023-06-10T01:54:09;100783.78;;;25.29;61.25
46955;BME280;32708;51.212;6.788;2023-06-10T01:56:36;100768.88;;;25.05;62.63
46955;BME280;32708;51.212;6.788;2023-06-10T01:59:02;100779.19;;;25.12;62.55
46955;BME280;32708;51.212;6.788;2023-06-10T02:01:29;100779.50;;;25.17;62.36
46955;BME280;32708;51.212;6.788;2023-06-10T02:03:55;100790.53;;;25.28;62.33
46955;BME280;32708;51.212;6.788;2023-06-10T02:06:21;100783.09;;;25.18;62.38
46955;BME280;32708;51.212;6.788;2023-06-10T02:08:47;100780.47;;;25.04;62.86
46955;BME280;32708;51.212;6.788;2023-06-10T02:11:13;100792.97;;;25.26;61.76
46955;BME280;32708;51.212;6.788;2023-06-10T02:13:39;100794.22;;;25.21;62.70
46955;BME280;32708;51.212;6.788;2023-06-10T02:16:06;100793.53;;;25.44;61.33
46955;BME280;32708;51.212;6.788;2023-06-10T02:18:32;100797.56;;;25.43;60.64
46955;BME280;32708;51.212;6.788;2023-06-10T02:20:59;100789.91;;;25.17;62.05
46955;BME280;32708;51.212;6.788;2023-06-10T02:23:26;100793.22;;;25.39;62.20
46955;BME280;32708;51.212;6.788;2023-06-10T02:25:52;100802.38;;;25.09;63.24
46955;BME280;32708;51.212;6.788;2023-06-10T02:28:18;100796.16;;;25.59;60.67
46955;BME280;32708;51.212;6.788;2023-06-10T02:30:45;100803.00;;;25.54;60.50
46955;BME280;32708;51.212;6.788;2023-06-10T02:33:12;100795.19;;;25.72;60.33
46955;BME280;32708;51.212;6.788;2023-06-10T02:35:39;100799.69;;;25.32;63.37
46955;BME280;32708;51.212;6.788;2023-06-10T02:38:06;100796.34;;;25.75;60.97
46955;BME280;32708;51.212;6.788;2023-06-10T02:40:33;100792.28;;;25.79;60.82
46955;BME280;32708;51.212;6.788;2023-06-10T02:42:59;100803.25;;;25.63;62.13
46955;BME280;32708;51.212;6.788;2023-06-10T02:45:26;100802.38;;;25.70;61.16
46955;BME280;32708;51.212;6.788;2023-06-10T02:47:53;100804.09;;;24.95;63.67
46955;BME280;32708;51.212;6.788;2023-06-10T02:50:21;100801.66;;;24.97;63.12
46955;BME280;32708;51.212;6.788;2023-06-10T02:53:22;100795.56;;;25.44;61.23
46955;BME280;32708;51.212;6.788;2023-06-10T02:55:54;100793.19;;;25.69;60.44
46955;BME280;32708;51.212;6.788;2023-06-10T02:58:20;100800.38;;;25.40;61.20
46955;BME280;32708;51.212;6.788;2023-06-10T03:00:47;100798.06;;;24.97;61.93
46955;BME280;32708;51.212;6.788;2023-06-10T03:03:14;100801.78;;;25.24;61.08
46955;BME280;32708;51.212;6.788;2023-06-10T03:05:52;100802.09;;;24.96;61.61
46955;BME280;32708;51.212;6.788;2023-06-10T03:08:21;100796.22;;;24.87;62.06
46955;BME280;32708;51.212;6.788;2023-06-10T03:10:47;100802.16;;;24.89;61.76
46955;BME280;32708;51.212;6.788;2023-06-10T03:13:16;100798.22;;;24.86;61.93
46955;BME280;32708;51.212;6.788;2023-06-10T03:15:42;100794.00;;;25.09;61.68
46955;BME280;32708;51.212;6.788;2023-06-10T03:18:12;100795.66;;;24.61;62.98
46955;BME280;32708;51.212;6.788;2023-06-10T03:20:38;100800.66;;;24.36;64.08
46955;BME280;32708;51.212;6.788;2023-06-10T03:23:07;100804.00;;;24.65;63.16
46955;BME280;32708;51.212;6.788;2023-06-10T03:25:34;100794.03;;;25.02;61.71
46955;BME280;32708;51.212;6.788;2023-06-10T03:28:00;100795.38;;;24.90;61.85
46955;BME280;32708;51.212;6.788;2023-06-10T03:30:31;100795.06;;;25.18;60.50
46955;BME280;32708;51.212;6.788;2023-06-10T03:32:58;100805.31;;;25.29;60.30
46955;BME280;32708;51.212;6.788;2023-06-10T03:35:26;100801.22;;;25.03;60.26
46955;BME280;32708;51.212;6.788;2023-06-10T03:37:52;100805.31;;;24.91;60.88
46955;BME280;32708;51.212;6.788;2023-06-10T03:40:19;100808.13;;;24.91;60.70
46955;BME280;32708;51.212;6.788;2023-06-10T03:42:47;100811.00;;;25.52;59.67
46955;BME280;32708;51.212;6.788;2023-06-10T03:45:16;100802.84;;;25.65;58.83
46955;BME280;32708;51.212;6.788;2023-06-10T03:47:42;100812.06;;;25.62;58.05
46955;BME280;32708;51.212;6.788;2023-06-10T03:50:11;100806.06;;;25.94;57.17
46955;BME280;32708;51.212;6.788;2023-06-10T03:52:40;100808.47;;;26.19;56.29
46955;BME280;32708;51.212;6.788;2023-06-10T03:55:07;100811.16;;;25.99;57.23
46955;BME280;32708;51.212;6.788;2023-06-10T03:57:34;100807.31;;;26.86;53.99
46955;BME280;32708;51.212;6.788;2023-06-10T04:00:00;100806.84;;;27.31;52.20
46955;BME280;32708;51.212;6.788;2023-06-10T04:02:29;100804.91;;;26.85;52.92
46955;BME280;32708;51.212;6.788;2023-06-10T04:04:58;100811.16;;;26.93;53.10
46955;BME280;32708;51.212;6.788;2023-06-10T04:07:24;100806.22;;;27.60;51.35
46955;BME280;32708;51.212;6.788;2023-06-10T04:09:51;100807.22;;;27.69;49.87
46955;BME280;32708;51.212;6.788;2023-06-10T04:12:17;100818.78;;;26.92;53.51
46955;BME280;32708;51.212;6.788;2023-06-10T04:14:43;100814.97;;;27.06;52.76
46955;BME280;32708;51.212;6.788;2023-06-10T04:17:11;100818.44;;;27.50;51.17
46955;BME280;32708;51.212;6.788;2023-06-10T04:19:38;100817.41;;;27.24;53.07
46955;BME280;32708;51.212;6.788;2023-06-10T04:22:04;100811.56;;;28.07;49.41
46955;BME280;32708;51.212;6.788;2023-06-10T04:24:32;100836.69;;;26.98;54.27
46955;BME280;32708;51.212;6.788;2023-06-10T04:26:58;100831.94;;;27.19;52.06
46955;BME280;32708;51.212;6.788;2023-06-10T04:29:24;100825.06;;;28.77;47.50
46955;BME280;32708;51.212;6.788;2023-06-10T04:31:52;100823.63;;;28.56;48.47
46955;BME280;32708;51.212;6.788;2023-06-10T04:34:19;100824.06;;;29.00;46.11
46955;BME280;32708;51.212;6.788;2023-06-10T04:36:45;100829.78;;;28.35;47.99
46955;BME280;32708;51.212;6.788;2023-06-10T04:39:12;100831.50;;;28.12;48.93
46955;BME280;32708;51.212;6.788;2023-06-10T04:41:39;100833.84;;;27.97;49.94
46955;BME280;32708;51.212;6.788;2023-06-10T04:44:05;100832.66;;;28.47;48.60
46955;BME280;32708;51.212;6.788;2023-06-10T04:46:31;100831.63;;;27.73;50.39
46955;BME280;32708;51.212;6.788;2023-06-10T04:48:58;100828.41;;;29.17;47.12
46955;BME280;32708;51.212;6.788;2023-06-10T04:51:24;100826.88;;;29.83;43.94
46955;BME280;32708;51.212;6.788;2023-06-10T04:53:50;100824.66;;;29.08;46.34
46955;BME280;32708;51.212;6.788;2023-06-10T04:56:16;100826.75;;;29.74;44.08
46955;BME280;32708;51.212;6.788;2023-06-10T04:58:42;100815.66;;;30.56;42.38
46955;BME280;32708;51.212;6.788;2023-06-10T05:01:09;100814.22;;;29.08;44.41
46955;BME280;32708;51.212;6.788;2023-06-10T05:03:35;100825.34;;;30.68;42.93
46955;BME280;32708;51.212;6.788;2023-06-10T05:06:01;100819.22;;;31.04;40.99
46955;BME280;32708;51.212;6.788;2023-06-10T05:08:27;100821.72;;;30.80;41.72
46955;BME280;32708;51.212;6.788;2023-06-10T05:10:53;100823.56;;;30.49;42.38
46955;BME280;32708;51.212;6.788;2023-06-10T05:13:19;100822.06;;;30.69;41.83
46955;BME280;32708;51.212;6.788;2023-06-10T05:15:45;100815.44;;;31.73;39.52
46955;BME280;32708;51.212;6.788;2023-06-10T05:18:12;100827.44;;;31.11;41.17
46955;BME280;32708;51.212;6.788;2023-06-10T05:20:38;100827.78;;;30.79;40.83
46955;BME280;32708;51.212;6.788;2023-06-10T05:23:05;100819.84;;;31.74;39.52
46955;BME280;32708;51.212;6.788;2023-06-10T05:25:33;100821.13;;;31.07;39.76
46955;BME280;32708;51.212;6.788;2023-06-10T05:27:59;100815.84;;;31.62;39.13
46955;BME280;32708;51.212;6.788;2023-06-10T05:30:25;100822.59;;;31.65;39.44
46955;BME280;32708;51.212;6.788;2023-06-10T05:32:52;100817.72;;;31.87;38.92
46955;BME280;32708;51.212;6.788;2023-06-10T05:35:22;100818.81;;;30.93;40.64
46955;BME280;32708;51.212;6.788;2023-06-10T05:37:48;100824.81;;;31.17;39.59
46955;BME280;32708;51.212;6.788;2023-06-10T05:40:14;100816.97;;;31.21;39.11
46955;BME280;32708;51.212;6.788;2023-06-10T05:42:41;100824.59;;;31.55;38.50
46955;BME280;32708;51.212;6.788;2023-06-10T05:45:07;100830.75;;;30.75;40.54
46955;BME280;32708;51.212;6.788;2023-06-10T05:47:34;100832.47;;;31.16;40.12
46955;BME280;32708;51.212;6.788;2023-06-10T05:50:00;100827.38;;;31.77;39.33
46955;BME280;32708;51.212;6.788;2023-06-10T05:52:26;100834.00;;;31.08;40.01
46955;BME280;32708;51.212;6.788;2023-06-10T05:54:52;100824.56;;;31.46;39.12
46955;BME280;32708;51.212;6.788;2023-06-10T05:57:20;100837.72;;;30.10;41.57
46955;BME280;32708;51.212;6.788;2023-06-10T05:59:46;100833.94;;;32.05;38.16
46955;BME280;32708;51.212;6.788;2023-06-10T06:02:12;100827.66;;;32.78;36.88
46955;BME280;32708;51.212;6.788;2023-06-10T06:04:38;100841.06;;;31.13;40.05
46955;BME280;32708;51.212;6.788;2023-06-10T06:07:05;100835.47;;;31.97;38.84
46955;BME280;32708;51.212;6.788;2023-06-10T06:09:31;100833.72;;;31.90;38.12
46955;BME280;32708;51.212;6.788;2023-06-10T06:11:57;100844.06;;;31.62;39.65
46955;BME280;32708;51.212;6.788;2023-06-10T06:14:24;100838.91;;;31.92;38.75
46955;BME280;32708;51.212;6.788;2023-06-10T06:16:50;100829.47;;;33.73;35.58
46955;BME280;32708;51.212;6.788;2023-06-10T06:19:16;100840.78;;;31.20;39.58
46955;BME280;32708;51.212;6.788;2023-06-10T06:21:42;100838.78;;;30.00;41.94
46955;BME280;32708;51.212;6.788;2023-06-10T06:24:08;100837.94;;;32.26;38.30
46955;BME280;32708;51.212;6.788;2023-06-10T06:26:34;100830.34;;;34.54;33.97
46955;BME280;32708;51.212;6.788;2023-06-10T06:29:01;100834.59;;;32.68;36.85
46955;BME280;32708;51.212;6.788;2023-06-10T06:31:27;100836.06;;;31.30;37.89
46955;BME280;32708;51.212;6.788;2023-06-10T06:33:53;100831.16;;;33.09;35.77
46955;BME280;32708;51.212;6.788;2023-06-10T06:36:19;100843.06;;;31.47;38.86
46955;BME280;32708;51.212;6.788;2023-06-10T06:38:46;100843.56;;;31.55;38.59
46955;BME280;32708;51.212;6.788;2023-06-10T06:41:12;100849.69;;;31.31;38.86
46955;BME280;32708;51.212;6.788;2023-06-10T06:43:39;100845.28;;;32.82;37.06
46955;BME280;32708;51.212;6.788;2023-06-10T06:46:25;100845.25;;;32.54;36.90
46955;BME280;32708;51.212;6.788;2023-06-10T06:48:51;100845.91;;;32.18;37.20
46955;BME280;32708;51.212;6.788;2023-06-10T06:51:17;100846.16;;;33.61;34.40
46955;BME280;32708;51.212;6.788;2023-06-10T06:53:43;100840.03;;;34.05;33.31
46955;BME280;32708;51.212;6.788;2023-06-10T06:56:12;100853.25;;;34.65;33.71
46955;BME280;32708;51.212;6.788;2023-06-10T06:58:39;100857.63;;;34.52;33.34
46955;BME280;32708;51.212;6.788;2023-06-10T07:01:05;100851.06;;;35.97;30.92
46955;BME280;32708;51.212;6.788;2023-06-10T07:03:31;100848.16;;;35.91;31.16
46955;BME280;32708;51.212;6.788;2023-06-10T07:05:58;100851.91;;;33.16;34.27
46955;BME280;32708;51.212;6.788;2023-06-10T07:08:24;100856.56;;;32.64;36.98
46955;BME280;32708;51.212;6.788;2023-06-10T07:10:50;100850.78;;;33.13;35.63
46955;BME280;32708;51.212;6.788;2023-06-10T07:13:16;100849.63;;;32.55;35.96
46955;BME280;32708;51.212;6.788;2023-06-10T07:15:42;100861.09;;;31.49;37.83
46955;BME280;32708;51.212;6.788;2023-06-10T07:18:09;100862.84;;;33.50;36.34
46955;BME280;32708;51.212;6.788;2023-06-10T07:20:35;100859.56;;;32.78;36.67
46955;BME280;32708;51.212;6.788;2023-06-10T07:23:02;100861.69;;;33.75;35.77
46955;BME280;32708;51.212;6.788;2023-06-10T07:25:28;100861.50;;;35.02;33.06
46955;BME280;32708;51.212;6.788;2023-06-10T07:27:54;100862.56;;;35.58;32.02
46955;BME280;32708;51.212;6.788;2023-06-10T07:30:20;100854.09;;;34.81;32.97
46955;BME280;32708;51.212;6.788;2023-06-10T07:32:46;100852.19;;;35.55;31.62
46955;BME280;32708;51.212;6.788;2023-06-10T07:35:14;100853.44;;;35.39;32.59
46955;BME280;32708;51.212;6.788;2023-06-10T07:37:40;100859.28;;;33.04;36.11
46955;BME280;32708;51.212;6.788;2023-06-10T07:40:07;100856.06;;;33.66;35.82
46955;BME280;32708;51.212;6.788;2023-06-10T07:42:35;100855.50;;;35.53;32.79
46955;BME280;32708;51.212;6.788;2023-06-10T07:45:03;100865.25;;;35.08;33.16
46955;BME280;32708;51.212;6.788;2023-06-10T07:47:34;100860.06;;;34.83;34.39
46955;BME280;32708;51.212;6.788;2023-06-10T07:50:00;100858.53;;;34.25;35.64
46955;BME280;32708;51.212;6.788;2023-06-10T07:52:28;100864.25;;;34.15;35.02
46955;BME280;32708;51.212;6.788;2023-06-10T07:54:54;100854.94;;;36.14;32.37
46955;BME280;32708;51.212;6.788;2023-06-10T07:57:20;100849.63;;;35.57;32.06
46955;BME280;32708;51.212;6.788;2023-06-10T07:59:46;100857.69;;;35.44;32.55
46955;BME280;32708;51.212;6.788;2023-06-10T08:02:13;100857.31;;;36.51;31.07
46955;BME280;32708;51.212;6.788;2023-06-10T08:04:39;100856.63;;;36.06;32.21
46955;BME280;32708;51.212;6.788;2023-06-10T08:07:05;100854.91;;;35.64;32.90
46955;BME280;32708;51.212;6.788;2023-06-10T08:09:31;100848.66;;;34.92;32.91
46955;BME280;32708;51.212;6.788;2023-06-10T08:11:58;100856.81;;;36.52;31.56
46955;BME280;32708;51.212;6.788;2023-06-10T08:14:24;100841.59;;;35.55;31.83
46955;BME280;32708;51.212;6.788;2023-06-10T08:16:50;100842.59;;;36.17;31.05
46955;BME280;32708;51.212;6.788;2023-06-10T08:19:16;100846.56;;;35.16;32.40
46955;BME280;32708;51.212;6.788;2023-06-10T08:21:42;100846.00;;;37.23;29.87
46955;BME280;32708;51.212;6.788;2023-06-10T08:24:10;100843.94;;;35.87;31.40
46955;BME280;32708;51.212;6.788;2023-06-10T08:26:36;100847.59;;;36.22;31.13
46955;BME280;32708;51.212;6.788;2023-06-10T08:29:02;100849.56;;;36.16;31.21
46955;BME280;32708;51.212;6.788;2023-06-10T08:31:28;100851.06;;;35.97;31.68
46955;BME280;32708;51.212;6.788;2023-06-10T08:33:54;100842.88;;;35.54;32.45
46955;BME280;32708;51.212;6.788;2023-06-10T08:36:20;100849.66;;;36.07;31.57
46955;BME280;32708;51.212;6.788;2023-06-10T08:38:46;100843.75;;;35.46;30.79
46955;BME280;32708;51.212;6.788;2023-06-10T08:41:17;100843.59;;;37.68;29.26
46955;BME280;32708;51.212;6.788;2023-06-10T08:46:37;100838.91;;;37.13;28.87
46955;BME280;32708;51.212;6.788;2023-06-10T08:49:06;100840.72;;;37.36;29.58
46955;BME280;32708;51.212;6.788;2023-06-10T08:51:35;100841.13;;;36.07;30.71
46955;BME280;32708;51.212;6.788;2023-06-10T08:54:11;100845.59;;;35.78;31.19
46955;BME280;32708;51.212;6.788;2023-06-10T08:56:43;100842.63;;;36.78;29.65
46955;BME280;32708;51.212;6.788;2023-06-10T08:59:11;100840.47;;;36.88;29.66
46955;BME280;32708;51.212;6.788;2023-06-10T09:01:38;100845.47;;;36.99;29.75
46955;BME280;32708;51.212;6.788;2023-06-10T09:04:05;100845.47;;;36.58;30.55
46955;BME280;32708;51.212;6.788;2023-06-10T09:06:33;100842.41;;;37.28;30.31
46955;BME280;32708;51.212;6.788;2023-06-10T09:09:00;100838.22;;;37.44;29.00
46955;BME280;32708;51.212;6.788;2023-06-10T09:11:26;100850.09;;;35.26;31.52
46955;BME280;32708;51.212;6.788;2023-06-10T09:13:52;100841.19;;;35.77;31.42
46955;BME280;32708;51.212;6.788;2023-06-10T09:16:19;100841.53;;;36.90;30.29
46955;BME280;32708;51.212;6.788;2023-06-10T09:18:45;100832.72;;;38.04;28.18
46955;BME280;32708;51.212;6.788;2023-06-10T09:21:12;100830.34;;;37.65;28.18
46955;BME280;32708;51.212;6.788;2023-06-10T09:23:38;100837.69;;;35.68;31.60
46955;BME280;32708;51.212;6.788;2023-06-10T09:26:08;100838.09;;;36.46;30.29
46955;BME280;32708;51.212;6.788;2023-06-10T09:28:36;100831.78;;;37.23;29.34
46955;BME280;32708;51.212;6.788;2023-06-10T09:31:06;100837.16;;;35.10;31.03
46955;BME280;32708;51.212;6.788;2023-06-10T09:33:39;100837.81;;;35.44;32.25
46955;BME280;32708;51.212;6.788;2023-06-10T09:36:06;100821.19;;;37.81;28.96
46955;BME280;32708;51.212;6.788;2023-06-10T09:38:35;100825.06;;;37.52;29.59
46955;BME280;32708;51.212;6.788;2023-06-10T09:41:03;100825.03;;;36.54;30.86
46955;BME280;32708;51.212;6.788;2023-06-10T09:43:45;100834.00;;;36.32;31.46
46955;BME280;32708;51.212;6.788;2023-06-10T09:46:16;100837.19;;;35.69;33.85
46955;BME280;32708;51.212;6.788;2023-06-10T09:48:46;100825.34;;;37.02;31.53
46955;BME280;32708;51.212;6.788;2023-06-10T09:51:14;100815.97;;;36.00;32.02
46955;BME280;32708;51.212;6.788;2023-06-10T09:53:42;100818.53;;;34.94;34.24
46955;BME280;32708;51.212;6.788;2023-06-10T09:56:09;100817.56;;;37.29;31.24
46955;BME280;32708;51.212;6.788;2023-06-10T09:58:39;100814.88;;;37.40;30.42
46955;BME280;32708;51.212;6.788;2023-06-10T10:01:13;100824.69;;;36.11;32.81
46955;BME280;32708;51.212;6.788;2023-06-10T10:03:50;100818.47;;;36.48;32.06
46955;BME280;32708;51.212;6.788;2023-06-10T10:06:19;100813.22;;;36.61;31.47
46955;BME280;32708;51.212;6.788;2023-06-10T10:08:49;100810.84;;;37.52;30.20
46955;BME280;32708;51.212;6.788;2023-06-10T10:11:22;100814.41;;;36.75;30.21
46955;BME280;32708;51.212;6.788;2023-06-10T10:13:50;100810.22;;;36.50;30.30
46955;BME280;32708;51.212;6.788;2023-06-10T10:16:27;100818.56;;;36.18;30.69
46955;BME280;32708;51.212;6.788;2023-06-10T10:19:00;100813.91;;;36.15;30.60
46955;BME280;32708;51.212;6.788;2023-06-10T10:21:38;100815.34;;;35.31;32.49
46955;BME280;32708;51.212;6.788;2023-06-10T10:24:23;100813.19;;;34.48;33.55
46955;BME280;32708;51.212;6.788;2023-06-10T10:27:01;100814.00;;;33.83;34.29
46955;BME280;32708;51.212;6.788;2023-06-10T10:29:39;100807.41;;;34.67;32.18
46955;BME280;32708;51.212;6.788;2023-06-10T10:32:08;100806.84;;;35.31;31.07
46955;BME280;32708;51.212;6.788;2023-06-10T10:37:29;100802.72;;;36.11;29.91
46955;BME280;32708;51.212;6.788;2023-06-10T10:39:57;100791.50;;;36.63;29.05
46955;BME280;32708;51.212;6.788;2023-06-10T10:42:25;100787.84;;;37.04;28.38
46955;BME280;32708;51.212;6.788;2023-06-10T10:44:53;100794.00;;;35.65;30.17
46955;BME280;32708;51.212;6.788;2023-06-10T10:47:22;100789.09;;;35.21;30.81
46955;BME280;32708;51.212;6.788;2023-06-10T10:49:52;100783.09;;;34.27;31.19
46955;BME280;32708;51.212;6.788;2023-06-10T10:52:26;100797.00;;;34.64;30.52
46955;BME280;32708;51.212;6.788;2023-06-10T10:54:54;100784.69;;;35.20;30.15
46955;BME280;32708;51.212;6.788;2023-06-10T10:57:23;100787.44;;;34.61;30.94
46955;BME280;32708;51.212;6.788;2023-06-10T11:02:42;100799.88;;;33.22;33.37
46955;BME280;32708;51.212;6.788;2023-06-10T11:05:12;100787.84;;;33.55;32.29
46955;BME280;32708;51.212;6.788;2023-06-10T11:07:39;100793.13;;;32.92;33.52
46955;BME280;32708;51.212;6.788;2023-06-10T11:10:11;100779.56;;;33.75;32.23
46955;BME280;32708;51.212;6.788;2023-06-10T11:15:32;100784.06;;;33.58;32.24
46955;BME280;32708;51.212;6.788;2023-06-10T11:23:49;100764.16;;;35.25;29.95
46955;BME280;32708;51.212;6.788;2023-06-10T11:31:33;100776.91;;;33.72;30.90
46955;BME280;32708;51.212;6.788;2023-06-10T11:34:05;100755.72;;;33.67;31.04
46955;BME280;32708;51.212;6.788;2023-06-10T11:36:43;100761.06;;;33.65;30.87
46955;BME280;32708;51.212;6.788;2023-06-10T11:39:12;100770.41;;;34.61;30.53
46955;BME280;32708;51.212;6.788;2023-06-10T11:41:39;100769.78;;;34.42;30.17
46955;BME280;32708;51.212;6.788;2023-06-10T11:46:36;100752.66;;;33.80;30.89
46955;BME280;32708;51.212;6.788;2023-06-10T11:49:05;100754.16;;;33.66;31.02
46955;BME280;32708;51.212;6.788;2023-06-10T11:51:39;100744.16;;;33.47;30.88
46955;BME280;32708;51.212;6.788;2023-06-10T11:54:09;100749.25;;;33.15;31.84
46955;BME280;32708;51.212;6.788;2023-06-10T11:56:36;100754.38;;;33.35;31.42
46955;BME280;32708;51.212;6.788;2023-06-10T11:59:05;100750.56;;;32.87;31.93
46955;BME280;32708;51.212;6.788;2023-06-10T12:01:42;100752.34;;;33.78;31.43
46955;BME280;32708;51.212;6.788;2023-06-10T12:04:14;100752.88;;;33.16;31.84
46955;BME280;32708;51.212;6.788;2023-06-10T12:06:43;100755.22;;;33.17;32.10
46955;BME280;32708;51.212;6.788;2023-06-10T12:09:29;100748.50;;;32.50;32.51
46955;BME280;32708;51.212;6.788;2023-06-10T12:12:00;100747.44;;;33.36;31.55
46955;BME280;32708;51.212;6.788;2023-06-10T12:14:59;100747.69;;;33.05;32.40
46955;BME280;32708;51.212;6.788;2023-06-10T12:20:24;100751.00;;;32.85;32.81
46955;BME280;32708;51.212;6.788;2023-06-10T12:22:49;100731.63;;;33.20;32.90
46955;BME280;32708;51.212;6.788;2023-06-10T12:25:15;100752.44;;;32.53;33.58
46955;BME280;32708;51.212;6.788;2023-06-10T12:27:51;100760.69;;;32.11;33.57
46955;BME280;32708;51.212;6.788;2023-06-10T12:30:24;100756.41;;;31.97;34.22
46955;BME280;32708;51.212;6.788;2023-06-10T12:32:52;100754.16;;;32.50;33.73
46955;BME280;32708;51.212;6.788;2023-06-10T12:35:21;100754.25;;;32.28;34.13
46955;BME280;32708;51.212;6.788;2023-06-10T12:38:04;100757.00;;;32.59;34.23
46955;BME280;32708;51.212;6.788;2023-06-10T12:40:36;100757.31;;;32.80;33.42
46955;BME280;32708;51.212;6.788;2023-06-10T12:43:03;100761.22;;;33.10;33.21
46955;BME280;32708;51.212;6.788;2023-06-10T12:45:38;100749.94;;;33.01;33.14
46955;BME280;32708;51.212;6.788;2023-06-10T12:48:23;100748.16;;;32.85;33.12
46955;BME280;32708;51.212;6.788;2023-06-10T12:50:55;100745.84;;;33.53;31.84
46955;BME280;32708;51.212;6.788;2023-06-10T12:53:23;100752.59;;;33.89;31.89
46955;BME280;32708;51.212;6.788;2023-06-10T12:55:51;100754.00;;;32.91;32.78
46955;BME280;32708;51.212;6.788;2023-06-10T12:58:20;100746.28;;;33.09;32.33
46955;BME280;32708;51.212;6.788;2023-06-10T13:00:48;100752.22;;;34.53;30.88
46955;BME280;32708;51.212;6.788;2023-06-10T13:03:15;100745.44;;;35.34;29.62
46955;BME280;32708;51.212;6.788;2023-06-10T13:05:41;100731.06;;;35.52;28.36
46955;BME280;32708;51.212;6.788;2023-06-10T13:08:08;100727.03;;;36.14;27.95
46955;BME280;32708;51.212;6.788;2023-06-10T13:10:38;100718.72;;;36.77;27.25
46955;BME280;32708;51.212;6.788;2023-06-10T13:13:04;100727.47;;;37.57;27.31
46955;BME280;32708;51.212;6.788;2023-06-10T13:15:33;100719.41;;;36.92;26.74
46955;BME280;32708;51.212;6.788;2023-06-10T13:18:03;100718.09;;;36.01;26.70
46955;BME280;32708;51.212;6.788;2023-06-10T13:20:30;100711.25;;;36.13;26.51
46955;BME280;32708;51.212;6.788;2023-06-10T13:22:57;100716.88;;;34.93;28.19
46955;BME280;32708;51.212;6.788;2023-06-10T13:25:23;100728.44;;;34.51;29.52